sensor_id;sensor_type;location;lat;lon;timestamp;P1;durP1;ratioP1;P2;durP2;ratioP2
11588;SDS011;5850;51.360;12.362;2023-02-28T00:01:48;5.17;;;3.20;;
11588;SDS011;5850;51.360;12.362;2023-02-28T00:04:18;4.83;;;3.43;;
11588;SDS011;5850;51.360;12.362;2023-02-28T00:06:49;3.07;;;2.70;;
11588;SDS011;5850;51.360;12.362;2023-02-28T00:09:19;5.30;;;3.23;;
11588;SDS011;5850;51.360;12.362;2023-02-28T00:11:48;5.37;;;3.17;;
11588;SDS011;5850;51.360;12.362;2023-02-28T00:14:17;4.20;;;3.20;;
11588;SDS011;5850;51.360;12.362;2023-02-28T00:16:45;4.17;;;3.30;;
11588;SDS011;5850;51.360;12.362;2023-02-28T00:19:14;4.47;;;3.27;;
11588;SDS011;5850;51.360;12.362;2023-02-28T00:21:42;3.97;;;3.33;;
11588;SDS011;5850;51.360;12.362;2023-02-28T00:24:11;5.40;;;3.50;;
11588;SDS011;5850;51.360;12.362;2023-02-28T00:26:39;3.30;;;2.97;;
11588;SDS011;5850;51.360;12.362;2023-02-28T00:29:08;5.30;;;3.70;;
11588;SDS011;5850;51.360;12.362;2023-02-28T00:31:37;6.50;;;3.77;;
11588;SDS011;5850;51.360;12.362;2023-02-28T00:34:07;6.47;;;4.37;;
11588;SDS011;5850;51.360;12.362;2023-02-28T00:36:36;6.87;;;4.47;;
11588;SDS011;5850;51.360;12.362;2023-02-28T00:39:05;4.33;;;3.93;;
11588;SDS011;5850;51.360;12.362;2023-02-28T00:41:34;5.80;;;3.60;;
11588;SDS011;5850;51.360;12.362;2023-02-28T00:44:04;4.70;;;3.70;;
11588;SDS011;5850;51.360;12.362;2023-02-28T00:46:35;5.80;;;3.87;;
11588;SDS011;5850;51.360;12.362;2023-02-28T00:49:04;6.03;;;3.83;;
11588;SDS011;5850;51.360;12.362;2023-02-28T00:51:33;4.83;;;3.80;;
11588;SDS011;5850;51.360;12.362;2023-02-28T00:54:03;4.30;;;3.67;;
11588;SDS011;5850;51.360;12.362;2023-02-28T00:56:35;4.23;;;3.53;;
11588;SDS011;5850;51.360;12.362;2023-02-28T00:59:03;4.73;;;3.70;;
11588;SDS011;5850;51.360;12.362;2023-02-28T01:01:32;4.87;;;3.80;;
11588;SDS011;5850;51.360;12.362;2023-02-28T01:04:01;6.13;;;4.30;;
11588;SDS011;5850;51.360;12.362;2023-02-28T01:06:33;4.63;;;3.87;;
11588;SDS011;5850;51.360;12.362;2023-02-28T01:09:03;4.17;;;3.53;;
11588;SDS011;5850;51.360;12.362;2023-02-28T01:11:33;5.90;;;3.80;;
11588;SDS011;5850;51.360;12.362;2023-02-28T01:14:04;6.90;;;4.07;;
11588;SDS011;5850;51.360;12.362;2023-02-28T01:16:32;3.77;;;3.23;;
11588;SDS011;5850;51.360;12.362;2023-02-28T01:19:01;5.57;;;3.47;;
11588;SDS011;5850;51.360;12.362;2023-02-28T01:21:29;5.60;;;3.87;;
11588;SDS011;5850;51.360;12.362;2023-02-28T01:23:58;7.77;;;4.27;;
11588;SDS011;5850;51.360;12.362;2023-02-28T01:26:27;5.77;;;3.90;;
11588;SDS011;5850;51.360;12.362;2023-02-28T01:28:55;4.57;;;3.63;;
11588;SDS011;5850;51.360;12.362;2023-02-28T01:31:24;4.10;;;3.50;;
11588;SDS011;5850;51.360;12.362;2023-02-28T01:33:57;5.73;;;3.60;;
11588;SDS011;5850;51.360;12.362;2023-02-28T01:36:26;5.63;;;3.37;;
11588;SDS011;5850;51.360;12.362;2023-02-28T01:38:55;3.40;;;3.10;;
11588;SDS011;5850;51.360;12.362;2023-02-28T01:41:27;3.60;;;3.07;;
11588;SDS011;5850;51.360;12.362;2023-02-28T01:44:54;5.93;;;3.50;;
11588;SDS011;5850;51.360;12.362;2023-02-28T01:47:25;4.47;;;3.67;;
11588;SDS011;5850;51.360;12.362;2023-02-28T01:50:04;4.77;;;3.13;;
11588;SDS011;5850;51.360;12.362;2023-02-28T01:52:38;4.73;;;3.87;;
11588;SDS011;5850;51.360;12.362;2023-02-28T01:55:07;4.07;;;3.30;;
11588;SDS011;5850;51.360;12.362;2023-02-28T01:57:42;4.40;;;3.13;;
11588;SDS011;5850;51.360;12.362;2023-02-28T02:00:16;4.47;;;3.47;;
11588;SDS011;5850;51.360;12.362;2023-02-28T02:02:50;4.13;;;3.53;;
11588;SDS011;5850;51.360;12.362;2023-02-28T02:05:23;4.30;;;3.50;;
11588;SDS011;5850;51.360;12.362;2023-02-28T02:07:58;3.27;;;2.90;;
11588;SDS011;5850;51.360;12.362;2023-02-28T02:10:36;6.67;;;4.00;;
11588;SDS011;5850;51.360;12.362;2023-02-28T02:13:10;6.03;;;4.03;;
11588;SDS011;5850;51.360;12.362;2023-02-28T02:25:45;7.00;;;3.70;;
11588;SDS011;5850;51.360;12.362;2023-02-28T02:40:02;5.20;;;3.30;;
11588;SDS011;5850;51.360;12.362;2023-02-28T02:45:33;3.83;;;3.40;;
11588;SDS011;5850;51.360;12.362;2023-02-28T02:48:10;3.87;;;3.20;;
11588;SDS011;5850;51.360;12.362;2023-02-28T02:50:44;4.53;;;3.80;;
11588;SDS011;5850;51.360;12.362;2023-02-28T02:53:17;7.47;;;4.13;;
11588;SDS011;5850;51.360;12.362;2023-02-28T02:55:53;5.53;;;3.40;;
11588;SDS011;5850;51.360;12.362;2023-02-28T02:58:27;3.80;;;3.10;;
11588;SDS011;5850;51.360;12.362;2023-02-28T03:01:01;4.97;;;3.33;;
11588;SDS011;5850;51.360;12.362;2023-02-28T03:03:31;4.43;;;3.23;;
11588;SDS011;5850;51.360;12.362;2023-02-28T03:06:02;4.80;;;3.27;;
11588;SDS011;5850;51.360;12.362;2023-02-28T03:08:36;4.80;;;3.53;;
11588;SDS011;5850;51.360;12.362;2023-02-28T03:11:06;3.80;;;3.33;;
11588;SDS011;5850;51.360;12.362;2023-02-28T03:16:35;3.87;;;3.50;;
11588;SDS011;5850;51.360;12.362;2023-02-28T03:21:48;5.80;;;3.87;;
11588;SDS011;5850;51.360;12.362;2023-02-28T03:33:02;6.33;;;4.03;;
11588;SDS011;5850;51.360;12.362;2023-02-28T03:35:48;5.20;;;4.00;;
11588;SDS011;5850;51.360;12.362;2023-02-28T03:38:43;5.03;;;3.70;;
11588;SDS011;5850;51.360;12.362;2023-02-28T03:44:22;5.07;;;3.57;;
11588;SDS011;5850;51.360;12.362;2023-02-28T03:46:51;6.30;;;4.00;;
11588;SDS011;5850;51.360;12.362;2023-02-28T03:49:51;8.20;;;3.83;;
11588;SDS011;5850;51.360;12.362;2023-02-28T03:52:22;4.60;;;3.97;;
11588;SDS011;5850;51.360;12.362;2023-02-28T03:54:59;6.63;;;3.97;;
11588;SDS011;5850;51.360;12.362;2023-02-28T03:57:45;5.37;;;3.80;;
11588;SDS011;5850;51.360;12.362;2023-02-28T04:00:36;5.77;;;4.23;;
11588;SDS011;5850;51.360;12.362;2023-02-28T04:03:08;5.87;;;4.10;;
11588;SDS011;5850;51.360;12.362;2023-02-28T04:08:36;7.20;;;4.37;;
11588;SDS011;5850;51.360;12.362;2023-02-28T04:11:18;5.13;;;3.67;;
11588;SDS011;5850;51.360;12.362;2023-02-28T04:14:04;4.70;;;4.17;;
11588;SDS011;5850;51.360;12.362;2023-02-28T04:16:39;6.20;;;4.03;;
11588;SDS011;5850;51.360;12.362;2023-02-28T04:19:10;6.30;;;4.50;;
11588;SDS011;5850;51.360;12.362;2023-02-28T04:21:44;5.53;;;4.03;;
11588;SDS011;5850;51.360;12.362;2023-02-28T04:24:18;8.23;;;4.20;;
11588;SDS011;5850;51.360;12.362;2023-02-28T04:26:53;5.87;;;4.27;;
11588;SDS011;5850;51.360;12.362;2023-02-28T04:29:24;5.93;;;4.40;;
11588;SDS011;5850;51.360;12.362;2023-02-28T04:31:55;8.70;;;4.57;;
11588;SDS011;5850;51.360;12.362;2023-02-28T04:34:25;5.20;;;3.90;;
11588;SDS011;5850;51.360;12.362;2023-02-28T04:36:59;5.10;;;3.93;;
11588;SDS011;5850;51.360;12.362;2023-02-28T04:39:40;7.00;;;4.23;;
11588;SDS011;5850;51.360;12.362;2023-02-28T04:42:09;7.33;;;4.23;;
11588;SDS011;5850;51.360;12.362;2023-02-28T04:44:38;6.20;;;4.40;;
11588;SDS011;5850;51.360;12.362;2023-02-28T04:47:07;6.43;;;4.33;;
11588;SDS011;5850;51.360;12.362;2023-02-28T04:49:36;6.57;;;3.83;;
11588;SDS011;5850;51.360;12.362;2023-02-28T04:52:04;4.73;;;3.97;;
11588;SDS011;5850;51.360;12.362;2023-02-28T04:54:35;8.87;;;3.93;;
11588;SDS011;5850;51.360;12.362;2023-02-28T04:57:05;4.93;;;4.00;;
11588;SDS011;5850;51.360;12.362;2023-02-28T04:59:33;8.13;;;3.90;;
11588;SDS011;5850;51.360;12.362;2023-02-28T05:02:02;5.33;;;3.90;;
11588;SDS011;5850;51.360;12.362;2023-02-28T05:04:33;4.27;;;3.77;;
11588;SDS011;5850;51.360;12.362;2023-02-28T05:07:02;4.93;;;4.17;;
11588;SDS011;5850;51.360;12.362;2023-02-28T05:09:31;8.87;;;4.33;;
11588;SDS011;5850;51.360;12.362;2023-02-28T05:12:00;5.77;;;3.70;;
11588;SDS011;5850;51.360;12.362;2023-02-28T05:14:29;8.03;;;4.00;;
11588;SDS011;5850;51.360;12.362;2023-02-28T05:16:57;5.07;;;3.87;;
11588;SDS011;5850;51.360;12.362;2023-02-28T05:19:26;6.57;;;4.17;;
11588;SDS011;5850;51.360;12.362;2023-02-28T05:21:54;5.87;;;4.23;;
11588;SDS011;5850;51.360;12.362;2023-02-28T05:24:23;6.90;;;4.50;;
11588;SDS011;5850;51.360;12.362;2023-02-28T05:26:52;6.50;;;5.00;;
11588;SDS011;5850;51.360;12.362;2023-02-28T05:29:22;5.23;;;4.33;;
11588;SDS011;5850;51.360;12.362;2023-02-28T05:31:51;6.57;;;4.40;;
11588;SDS011;5850;51.360;12.362;2023-02-28T05:34:19;7.03;;;4.33;;
11588;SDS011;5850;51.360;12.362;2023-02-28T05:36:48;5.13;;;4.10;;
11588;SDS011;5850;51.360;12.362;2023-02-28T05:39:16;5.80;;;4.77;;
11588;SDS011;5850;51.360;12.362;2023-02-28T05:41:44;7.43;;;4.47;;
11588;SDS011;5850;51.360;12.362;2023-02-28T05:44:13;5.40;;;4.50;;
11588;SDS011;5850;51.360;12.362;2023-02-28T05:46:42;5.87;;;4.53;;
11588;SDS011;5850;51.360;12.362;2023-02-28T05:49:10;8.67;;;5.73;;
11588;SDS011;5850;51.360;12.362;2023-02-28T05:51:39;7.70;;;4.60;;
11588;SDS011;5850;51.360;12.362;2023-02-28T05:54:07;7.07;;;6.20;;
11588;SDS011;5850;51.360;12.362;2023-02-28T05:56:39;9.00;;;5.37;;
11588;SDS011;5850;51.360;12.362;2023-02-28T05:59:10;5.77;;;4.70;;
11588;SDS011;5850;51.360;12.362;2023-02-28T06:01:43;6.50;;;5.00;;
11588;SDS011;5850;51.360;12.362;2023-02-28T06:04:15;8.03;;;5.10;;
11588;SDS011;5850;51.360;12.362;2023-02-28T06:06:57;6.60;;;4.87;;
11588;SDS011;5850;51.360;12.362;2023-02-28T06:09:25;7.77;;;4.80;;
11588;SDS011;5850;51.360;12.362;2023-02-28T06:11:54;6.93;;;4.43;;
11588;SDS011;5850;51.360;12.362;2023-02-28T06:14:25;8.07;;;5.00;;
11588;SDS011;5850;51.360;12.362;2023-02-28T06:16:53;6.30;;;5.30;;
11588;SDS011;5850;51.360;12.362;2023-02-28T06:19:24;4.90;;;4.17;;
11588;SDS011;5850;51.360;12.362;2023-02-28T06:21:53;8.17;;;5.07;;
11588;SDS011;5850;51.360;12.362;2023-02-28T06:24:23;7.50;;;5.07;;
11588;SDS011;5850;51.360;12.362;2023-02-28T06:26:54;8.23;;;4.97;;
11588;SDS011;5850;51.360;12.362;2023-02-28T06:29:25;8.83;;;5.03;;
11588;SDS011;5850;51.360;12.362;2023-02-28T06:31:53;8.27;;;5.03;;
11588;SDS011;5850;51.360;12.362;2023-02-28T06:34:22;7.43;;;5.07;;
11588;SDS011;5850;51.360;12.362;2023-02-28T06:36:50;7.43;;;5.27;;
11588;SDS011;5850;51.360;12.362;2023-02-28T06:39:19;7.13;;;5.20;;
11588;SDS011;5850;51.360;12.362;2023-02-28T06:41:48;7.43;;;4.77;;
11588;SDS011;5850;51.360;12.362;2023-02-28T06:44:21;8.87;;;4.77;;
11588;SDS011;5850;51.360;12.362;2023-02-28T06:46:50;9.27;;;5.43;;
11588;SDS011;5850;51.360;12.362;2023-02-28T06:49:19;7.17;;;5.43;;
11588;SDS011;5850;51.360;12.362;2023-02-28T06:51:47;6.70;;;5.07;;
11588;SDS011;5850;51.360;12.362;2023-02-28T06:54:16;8.07;;;4.80;;
11588;SDS011;5850;51.360;12.362;2023-02-28T06:56:44;7.70;;;4.87;;
11588;SDS011;5850;51.360;12.362;2023-02-28T06:59:13;7.13;;;5.47;;
11588;SDS011;5850;51.360;12.362;2023-02-28T07:01:41;6.67;;;4.90;;
11588;SDS011;5850;51.360;12.362;2023-02-28T07:04:10;8.67;;;5.03;;
11588;SDS011;5850;51.360;12.362;2023-02-28T07:06:39;6.03;;;4.37;;
11588;SDS011;5850;51.360;12.362;2023-02-28T07:09:08;7.73;;;4.90;;
11588;SDS011;5850;51.360;12.362;2023-02-28T07:11:36;6.93;;;4.87;;
11588;SDS011;5850;51.360;12.362;2023-02-28T07:14:05;6.33;;;5.00;;
11588;SDS011;5850;51.360;12.362;2023-02-28T07:16:34;7.40;;;5.20;;
11588;SDS011;5850;51.360;12.362;2023-02-28T07:19:03;8.13;;;6.00;;
11588;SDS011;5850;51.360;12.362;2023-02-28T07:21:31;8.33;;;5.13;;
11588;SDS011;5850;51.360;12.362;2023-02-28T07:24:00;5.57;;;4.90;;
11588;SDS011;5850;51.360;12.362;2023-02-28T07:26:28;7.07;;;5.43;;
11588;SDS011;5850;51.360;12.362;2023-02-28T07:28:59;6.60;;;4.43;;
11588;SDS011;5850;51.360;12.362;2023-02-28T07:31:28;11.03;;;5.57;;
11588;SDS011;5850;51.360;12.362;2023-02-28T07:33:57;7.23;;;5.40;;
11588;SDS011;5850;51.360;12.362;2023-02-28T07:36:25;8.23;;;5.30;;
11588;SDS011;5850;51.360;12.362;2023-02-28T07:38:54;9.40;;;5.20;;
11588;SDS011;5850;51.360;12.362;2023-02-28T07:41:22;8.07;;;5.23;;
11588;SDS011;5850;51.360;12.362;2023-02-28T07:43:54;7.87;;;5.27;;
11588;SDS011;5850;51.360;12.362;2023-02-28T07:46:23;6.53;;;4.97;;
11588;SDS011;5850;51.360;12.362;2023-02-28T07:48:55;7.13;;;5.03;;
11588;SDS011;5850;51.360;12.362;2023-02-28T07:51:25;9.17;;;5.27;;
11588;SDS011;5850;51.360;12.362;2023-02-28T07:53:54;7.87;;;5.30;;
11588;SDS011;5850;51.360;12.362;2023-02-28T07:56:23;8.20;;;5.10;;
11588;SDS011;5850;51.360;12.362;2023-02-28T07:58:52;7.37;;;5.20;;
11588;SDS011;5850;51.360;12.362;2023-02-28T08:01:21;9.10;;;5.00;;
11588;SDS011;5850;51.360;12.362;2023-02-28T08:03:49;10.30;;;5.07;;
11588;SDS011;5850;51.360;12.362;2023-02-28T08:06:19;6.77;;;5.40;;
11588;SDS011;5850;51.360;12.362;2023-02-28T08:08:50;10.07;;;5.93;;
11588;SDS011;5850;51.360;12.362;2023-02-28T08:11:20;7.77;;;4.73;;
11588;SDS011;5850;51.360;12.362;2023-02-28T08:13:48;6.17;;;4.63;;
11588;SDS011;5850;51.360;12.362;2023-02-28T08:16:17;8.07;;;4.60;;
11588;SDS011;5850;51.360;12.362;2023-02-28T08:18:49;8.10;;;5.17;;
11588;SDS011;5850;51.360;12.362;2023-02-28T08:21:19;6.17;;;4.50;;
11588;SDS011;5850;51.360;12.362;2023-02-28T08:23:48;6.33;;;4.80;;
11588;SDS011;5850;51.360;12.362;2023-02-28T08:26:18;7.93;;;5.13;;
11588;SDS011;5850;51.360;12.362;2023-02-28T08:28:47;5.73;;;4.73;;
11588;SDS011;5850;51.360;12.362;2023-02-28T08:31:16;30.30;;;12.67;;
11588;SDS011;5850;51.360;12.362;2023-02-28T08:33:44;14.80;;;8.50;;
11588;SDS011;5850;51.360;12.362;2023-02-28T08:36:14;7.83;;;6.17;;
11588;SDS011;5850;51.360;12.362;2023-02-28T08:38:43;8.07;;;5.37;;
11588;SDS011;5850;51.360;12.362;2023-02-28T08:41:12;5.57;;;4.37;;
11588;SDS011;5850;51.360;12.362;2023-02-28T08:43:40;8.17;;;4.43;;
11588;SDS011;5850;51.360;12.362;2023-02-28T08:46:11;5.77;;;4.13;;
11588;SDS011;5850;51.360;12.362;2023-02-28T08:48:41;9.17;;;4.23;;
11588;SDS011;5850;51.360;12.362;2023-02-28T08:51:11;4.80;;;3.10;;
11588;SDS011;5850;51.360;12.362;2023-02-28T08:53:44;4.87;;;3.70;;
11588;SDS011;5850;51.360;12.362;2023-02-28T08:56:15;5.47;;;4.07;;
11588;SDS011;5850;51.360;12.362;2023-02-28T08:58:44;6.37;;;3.70;;
11588;SDS011;5850;51.360;12.362;2023-02-28T09:01:17;6.57;;;4.07;;
11588;SDS011;5850;51.360;12.362;2023-02-28T09:03:48;5.03;;;3.40;;
11588;SDS011;5850;51.360;12.362;2023-02-28T09:06:18;6.87;;;4.03;;
11588;SDS011;5850;51.360;12.362;2023-02-28T09:08:49;4.13;;;3.73;;
11588;SDS011;5850;51.360;12.362;2023-02-28T09:11:18;5.53;;;3.57;;
11588;SDS011;5850;51.360;12.362;2023-02-28T09:13:46;4.77;;;3.43;;
11588;SDS011;5850;51.360;12.362;2023-02-28T09:16:15;6.73;;;4.40;;
11588;SDS011;5850;51.360;12.362;2023-02-28T09:18:44;6.97;;;4.27;;
11588;SDS011;5850;51.360;12.362;2023-02-28T09:21:14;5.53;;;3.67;;
11588;SDS011;5850;51.360;12.362;2023-02-28T09:23:45;5.67;;;3.97;;
11588;SDS011;5850;51.360;12.362;2023-02-28T09:26:16;4.43;;;3.77;;
11588;SDS011;5850;51.360;12.362;2023-02-28T09:28:47;5.77;;;4.20;;
11588;SDS011;5850;51.360;12.362;2023-02-28T09:31:17;6.17;;;4.10;;
11588;SDS011;5850;51.360;12.362;2023-02-28T09:33:53;6.90;;;4.30;;
11588;SDS011;5850;51.360;12.362;2023-02-28T09:36:23;4.87;;;3.60;;
11588;SDS011;5850;51.360;12.362;2023-02-28T09:39:08;9.87;;;3.70;;
11588;SDS011;5850;51.360;12.362;2023-02-28T09:41:39;6.80;;;3.93;;
11588;SDS011;5850;51.360;12.362;2023-02-28T09:44:36;4.90;;;3.43;;
11588;SDS011;5850;51.360;12.362;2023-02-28T09:49:57;7.50;;;3.93;;
11588;SDS011;5850;51.360;12.362;2023-02-28T09:52:33;7.33;;;4.40;;
11588;SDS011;5850;51.360;12.362;2023-02-28T09:55:37;5.60;;;3.70;;
11588;SDS011;5850;51.360;12.362;2023-02-28T09:58:09;3.93;;;3.40;;
11588;SDS011;5850;51.360;12.362;2023-02-28T10:00:58;5.57;;;4.00;;
11588;SDS011;5850;51.360;12.362;2023-02-28T10:03:39;4.10;;;3.70;;
11588;SDS011;5850;51.360;12.362;2023-02-28T10:06:19;6.97;;;3.80;;
11588;SDS011;5850;51.360;12.362;2023-02-28T10:11:39;11.07;;;4.00;;
11588;SDS011;5850;51.360;12.362;2023-02-28T10:14:13;5.30;;;4.13;;
11588;SDS011;5850;51.360;12.362;2023-02-28T10:25:50;5.50;;;4.13;;
11588;SDS011;5850;51.360;12.362;2023-02-28T10:28:26;4.43;;;3.57;;
11588;SDS011;5850;51.360;12.362;2023-02-28T10:30:58;4.73;;;4.03;;
11588;SDS011;5850;51.360;12.362;2023-02-28T10:35:55;4.17;;;3.57;;
11588;SDS011;5850;51.360;12.362;2023-02-28T10:38:27;5.57;;;4.00;;
11588;SDS011;5850;51.360;12.362;2023-02-28T10:41:05;6.40;;;3.87;;
11588;SDS011;5850;51.360;12.362;2023-02-28T10:46:50;9.03;;;4.03;;
11588;SDS011;5850;51.360;12.362;2023-02-28T10:51:54;8.70;;;4.00;;
11588;SDS011;5850;51.360;12.362;2023-02-28T10:54:29;5.10;;;4.20;;
11588;SDS011;5850;51.360;12.362;2023-02-28T10:57:35;8.93;;;4.30;;
11588;SDS011;5850;51.360;12.362;2023-02-28T11:03:04;5.63;;;3.93;;
11588;SDS011;5850;51.360;12.362;2023-02-28T11:06:04;6.50;;;4.90;;
11588;SDS011;5850;51.360;12.362;2023-02-28T11:08:55;6.00;;;4.30;;
11588;SDS011;5850;51.360;12.362;2023-02-28T11:11:28;5.57;;;4.13;;
11588;SDS011;5850;51.360;12.362;2023-02-28T11:14:03;6.00;;;4.37;;
11588;SDS011;5850;51.360;12.362;2023-02-28T11:16:33;6.87;;;4.90;;
11588;SDS011;5850;51.360;12.362;2023-02-28T11:19:06;6.07;;;4.33;;
11588;SDS011;5850;51.360;12.362;2023-02-28T11:21:48;6.00;;;5.07;;
11588;SDS011;5850;51.360;12.362;2023-02-28T11:24:27;6.73;;;4.50;;
11588;SDS011;5850;51.360;12.362;2023-02-28T11:27:01;7.23;;;4.90;;
11588;SDS011;5850;51.360;12.362;2023-02-28T11:29:30;5.10;;;4.43;;
11588;SDS011;5850;51.360;12.362;2023-02-28T11:32:16;9.13;;;5.00;;
11588;SDS011;5850;51.360;12.362;2023-02-28T11:37:39;7.50;;;4.47;;
11588;SDS011;5850;51.360;12.362;2023-02-28T11:40:22;7.67;;;5.00;;
11588;SDS011;5850;51.360;12.362;2023-02-28T11:44:07;6.20;;;5.07;;
11588;SDS011;5850;51.360;12.362;2023-02-28T11:46:30;6.47;;;4.83;;
11588;SDS011;5850;51.360;12.362;2023-02-28T11:57:00;10.60;;;5.07;;
11588;SDS011;5850;51.360;12.362;2023-02-28T12:02:35;9.27;;;5.93;;
11588;SDS011;5850;51.360;12.362;2023-02-28T12:05:34;5.77;;;4.90;;
11588;SDS011;5850;51.360;12.362;2023-02-28T12:08:25;8.40;;;5.20;;
11588;SDS011;5850;51.360;12.362;2023-02-28T12:11:24;8.13;;;5.80;;
11588;SDS011;5850;51.360;12.362;2023-02-28T12:28:48;11.70;;;8.17;;
11588;SDS011;5850;51.360;12.362;2023-02-28T12:35:22;11.10;;;6.50;;
11588;SDS011;5850;51.360;12.362;2023-02-28T12:40:42;10.70;;;7.17;;
11588;SDS011;5850;51.360;12.362;2023-02-28T12:43:38;9.00;;;7.07;;
11588;SDS011;5850;51.360;12.362;2023-02-28T12:48:50;7.80;;;6.13;;
11588;SDS011;5850;51.360;12.362;2023-02-28T12:51:26;9.27;;;6.57;;
11588;SDS011;5850;51.360;12.362;2023-02-28T12:54:01;9.77;;;7.13;;
11588;SDS011;5850;51.360;12.362;2023-02-28T13:14:03;10.40;;;6.80;;
11588;SDS011;5850;51.360;12.362;2023-02-28T13:19:44;11.83;;;7.53;;
11588;SDS011;5850;51.360;12.362;2023-02-28T13:28:01;10.90;;;7.47;;
11588;SDS011;5850;51.360;12.362;2023-02-28T13:38:42;7.20;;;5.73;;
11588;SDS011;5850;51.360;12.362;2023-02-28T13:44:09;11.17;;;6.50;;
11588;SDS011;5850;51.360;12.362;2023-02-28T13:49:25;7.57;;;6.07;;
11588;SDS011;5850;51.360;12.362;2023-02-28T14:06:24;10.97;;;7.93;;
11588;SDS011;5850;51.360;12.362;2023-02-28T14:08:58;9.27;;;6.70;;
11588;SDS011;5850;51.360;12.362;2023-02-28T14:11:39;8.83;;;6.60;;
11588;SDS011;5850;51.360;12.362;2023-02-28T14:14:10;8.80;;;6.90;;
11588;SDS011;5850;51.360;12.362;2023-02-28T14:17:03;7.80;;;6.33;;
11588;SDS011;5850;51.360;12.362;2023-02-28T14:19:43;12.17;;;7.60;;
11588;SDS011;5850;51.360;12.362;2023-02-28T14:31:57;8.60;;;6.67;;
11588;SDS011;5850;51.360;12.362;2023-02-28T14:37:28;8.93;;;7.30;;
11588;SDS011;5850;51.360;12.362;2023-02-28T14:40:01;9.13;;;6.70;;
11588;SDS011;5850;51.360;12.362;2023-02-28T14:42:33;9.03;;;6.80;;
11588;SDS011;5850;51.360;12.362;2023-02-28T14:45:17;9.17;;;7.23;;
11588;SDS011;5850;51.360;12.362;2023-02-28T14:47:50;10.00;;;7.93;;
11588;SDS011;5850;51.360;12.362;2023-02-28T14:50:27;8.93;;;7.13;;
11588;SDS011;5850;51.360;12.362;2023-02-28T14:53:02;10.37;;;7.40;;
11588;SDS011;5850;51.360;12.362;2023-02-28T14:55:32;10.53;;;8.17;;
11588;SDS011;5850;51.360;12.362;2023-02-28T14:58:04;9.87;;;7.17;;
11588;SDS011;5850;51.360;12.362;2023-02-28T15:00:35;8.30;;;6.67;;
11588;SDS011;5850;51.360;12.362;2023-02-28T15:03:19;10.90;;;7.60;;
11588;SDS011;5850;51.360;12.362;2023-02-28T15:05:59;7.43;;;6.57;;
11588;SDS011;5850;51.360;12.362;2023-02-28T15:08:30;7.70;;;6.43;;
11588;SDS011;5850;51.360;12.362;2023-02-28T15:11:04;12.80;;;8.63;;
11588;SDS011;5850;51.360;12.362;2023-02-28T15:13:54;8.53;;;6.77;;
11588;SDS011;5850;51.360;12.362;2023-02-28T15:19:24;10.20;;;7.40;;
11588;SDS011;5850;51.360;12.362;2023-02-28T15:22:11;10.10;;;6.90;;
11588;SDS011;5850;51.360;12.362;2023-02-28T15:24:45;11.83;;;7.20;;
11588;SDS011;5850;51.360;12.362;2023-02-28T15:27:25;12.10;;;7.87;;
11588;SDS011;5850;51.360;12.362;2023-02-28T15:29:59;11.50;;;7.60;;
11588;SDS011;5850;51.360;12.362;2023-02-28T15:32:35;10.37;;;7.13;;
11588;SDS011;5850;51.360;12.362;2023-02-28T15:40:55;10.57;;;8.03;;
11588;SDS011;5850;51.360;12.362;2023-02-28T15:43:32;9.43;;;7.03;;
11588;SDS011;5850;51.360;12.362;2023-02-28T15:51:12;10.27;;;7.40;;
11588;SDS011;5850;51.360;12.362;2023-02-28T15:53:58;8.77;;;7.20;;
11588;SDS011;5850;51.360;12.362;2023-02-28T15:56:39;9.53;;;7.27;;
11588;SDS011;5850;51.360;12.362;2023-02-28T15:59:26;9.80;;;6.43;;
11588;SDS011;5850;51.360;12.362;2023-02-28T16:02:14;8.87;;;6.67;;
11588;SDS011;5850;51.360;12.362;2023-02-28T16:07:40;10.57;;;7.13;;
11588;SDS011;5850;51.360;12.362;2023-02-28T16:10:11;8.80;;;7.30;;
11588;SDS011;5850;51.360;12.362;2023-02-28T16:12:41;9.93;;;7.47;;
11588;SDS011;5850;51.360;12.362;2023-02-28T16:15:20;10.03;;;7.40;;
11588;SDS011;5850;51.360;12.362;2023-02-28T16:17:53;8.57;;;6.70;;
11588;SDS011;5850;51.360;12.362;2023-02-28T16:20:27;9.60;;;7.20;;
11588;SDS011;5850;51.360;12.362;2023-02-28T16:22:57;9.80;;;6.93;;
11588;SDS011;5850;51.360;12.362;2023-02-28T16:25:35;12.80;;;7.07;;
11588;SDS011;5850;51.360;12.362;2023-02-28T16:28:12;11.33;;;7.60;;
11588;SDS011;5850;51.360;12.362;2023-02-28T16:30:58;10.70;;;7.03;;
11588;SDS011;5850;51.360;12.362;2023-02-28T16:33:29;13.57;;;7.67;;
11588;SDS011;5850;51.360;12.362;2023-02-28T16:35:59;10.27;;;7.87;;
11588;SDS011;5850;51.360;12.362;2023-02-28T16:38:28;9.70;;;7.70;;
11588;SDS011;5850;51.360;12.362;2023-02-28T16:40:58;12.60;;;8.20;;
11588;SDS011;5850;51.360;12.362;2023-02-28T16:43:27;11.00;;;8.20;;
11588;SDS011;5850;51.360;12.362;2023-02-28T16:45:56;10.23;;;7.97;;
11588;SDS011;5850;51.360;12.362;2023-02-28T16:48:26;10.23;;;8.43;;
11588;SDS011;5850;51.360;12.362;2023-02-28T16:50:56;9.87;;;8.00;;
11588;SDS011;5850;51.360;12.362;2023-02-28T16:53:25;12.93;;;8.07;;
11588;SDS011;5850;51.360;12.362;2023-02-28T16:55:54;10.07;;;7.63;;
11588;SDS011;5850;51.360;12.362;2023-02-28T16:58:22;9.73;;;7.53;;
11588;SDS011;5850;51.360;12.362;2023-02-28T17:00:52;11.50;;;8.63;;
11588;SDS011;5850;51.360;12.362;2023-02-28T17:03:25;12.27;;;8.57;;
11588;SDS011;5850;51.360;12.362;2023-02-28T17:05:59;11.37;;;7.93;;
11588;SDS011;5850;51.360;12.362;2023-02-28T17:08:28;12.13;;;8.13;;
11588;SDS011;5850;51.360;12.362;2023-02-28T17:10:58;12.80;;;8.80;;
11588;SDS011;5850;51.360;12.362;2023-02-28T17:13:28;11.07;;;8.67;;
11588;SDS011;5850;51.360;12.362;2023-02-28T17:15:56;10.73;;;8.23;;
11588;SDS011;5850;51.360;12.362;2023-02-28T17:18:25;9.23;;;7.93;;
11588;SDS011;5850;51.360;12.362;2023-02-28T17:21:00;21.10;;;13.90;;
11588;SDS011;5850;51.360;12.362;2023-02-28T17:23:28;20.50;;;13.10;;
11588;SDS011;5850;51.360;12.362;2023-02-28T17:25:57;17.93;;;12.73;;
11588;SDS011;5850;51.360;12.362;2023-02-28T17:28:25;13.00;;;11.00;;
11588;SDS011;5850;51.360;12.362;2023-02-28T17:30:53;13.57;;;10.90;;
11588;SDS011;5850;51.360;12.362;2023-02-28T17:33:22;16.17;;;12.13;;
11588;SDS011;5850;51.360;12.362;2023-02-28T17:35:51;18.23;;;12.17;;
11588;SDS011;5850;51.360;12.362;2023-02-28T17:38:19;15.20;;;10.40;;
11588;SDS011;5850;51.360;12.362;2023-02-28T17:40:49;14.57;;;10.27;;
11588;SDS011;5850;51.360;12.362;2023-02-28T17:43:24;14.90;;;9.33;;
11588;SDS011;5850;51.360;12.362;2023-02-28T17:45:53;12.77;;;8.53;;
11588;SDS011;5850;51.360;12.362;2023-02-28T17:48:23;13.17;;;8.90;;
11588;SDS011;5850;51.360;12.362;2023-02-28T17:50:52;12.23;;;9.47;;
11588;SDS011;5850;51.360;12.362;2023-02-28T17:53:21;14.50;;;9.47;;
11588;SDS011;5850;51.360;12.362;2023-02-28T17:55:50;11.63;;;8.70;;
11588;SDS011;5850;51.360;12.362;2023-02-28T17:58:18;13.23;;;9.47;;
11588;SDS011;5850;51.360;12.362;2023-02-28T18:00:46;15.33;;;8.80;;
11588;SDS011;5850;51.360;12.362;2023-02-28T18:03:20;13.57;;;9.53;;
11588;SDS011;5850;51.360;12.362;2023-02-28T18:05:50;10.60;;;9.10;;
11588;SDS011;5850;51.360;12.362;2023-02-28T18:08:30;14.00;;;8.83;;
11588;SDS011;5850;51.360;12.362;2023-02-28T18:10:59;13.53;;;9.27;;
11588;SDS011;5850;51.360;12.362;2023-02-28T18:13:28;13.33;;;9.20;;
11588;SDS011;5850;51.360;12.362;2023-02-28T18:15:56;11.53;;;8.57;;
11588;SDS011;5850;51.360;12.362;2023-02-28T18:18:25;11.87;;;9.67;;
11588;SDS011;5850;51.360;12.362;2023-02-28T18:20:54;9.77;;;8.77;;
11588;SDS011;5850;51.360;12.362;2023-02-28T18:23:22;16.90;;;10.63;;
11588;SDS011;5850;51.360;12.362;2023-02-28T18:25:50;16.53;;;10.80;;
11588;SDS011;5850;51.360;12.362;2023-02-28T18:28:19;11.73;;;9.73;;
11588;SDS011;5850;51.360;12.362;2023-02-28T18:30:47;14.83;;;10.77;;